createdAt,value
2024-03-12T00:01:48.772Z,-5.79
2024-03-12T00:04:19.929Z,-5.80
2024-03-12T00:06:50.141Z,-5.77
2024-03-12T00:09:27.084Z,-5.75
2024-03-12T00:12:03.139Z,-5.72
2024-03-12T00:14:39.335Z,-5.69
2024-03-12T00:17:16.178Z,-5.66
2024-03-12T00:19:51.721Z,-5.61
2024-03-12T00:22:48.940Z,-5.58
2024-03-12T00:25:22.580Z,-5.53
2024-03-12T00:27:58.372Z,-5.49
2024-03-12T00:30:46.635Z,-5.47
2024-03-12T00:33:30.963Z,-5.46
2024-03-12T00:36:06.175Z,-5.46
2024-03-12T00:38:53.080Z,-5.47
2024-03-12T00:41:36.842Z,-5.46
2024-03-12T00:44:21.486Z,-5.45
2024-03-12T00:47:01.740Z,-5.47
2024-03-12T00:49:35.546Z,-5.50
2024-03-12T00:52:07.210Z,-5.53
2024-03-12T00:54:47.700Z,-5.53
2024-03-12T00:57:17.682Z,-5.54
2024-03-12T00:59:45.449Z,-5.57
2024-03-12T01:02:18.556Z,-5.63
2024-03-12T01:04:51.538Z,-5.67
2024-03-12T01:07:20.606Z,-5.71
2024-03-12T01:09:54.044Z,-5.74
2024-03-12T01:12:31.124Z,-5.77
2024-03-12T01:15:10.558Z,-5.79
2024-03-12T01:18:40.269Z,-5.80
2024-03-12T01:21:15.301Z,-5.79
2024-03-12T01:23:57.088Z,-5.77
2024-03-12T01:26:36.111Z,-5.76
2024-03-12T01:29:04.799Z,-5.77
2024-03-12T01:31:37.479Z,-5.78
2024-03-12T01:34:17.945Z,-5.75
2024-03-12T01:36:51.319Z,-5.73
2024-03-12T01:39:27.930Z,-5.68
2024-03-12T01:42:01.211Z,-5.65
2024-03-12T01:44:43.821Z,-5.65
2024-03-12T01:47:26.373Z,-5.61
2024-03-12T01:49:59.517Z,-5.57
2024-03-12T01:52:37.215Z,-5.55
2024-03-12T01:55:20.098Z,-5.53
2024-03-12T01:57:53.405Z,-5.50
2024-03-12T02:00:26.913Z,-5.49
2024-03-12T02:03:10.670Z,-5.47
2024-03-12T02:05:43.928Z,-5.45
2024-03-12T02:08:24.231Z,-5.42
2024-03-12T02:10:53.653Z,-5.40
2024-03-12T02:13:47.104Z,-5.38
2024-03-12T02:16:16.431Z,-5.36
2024-03-12T02:18:52.829Z,-5.36
2024-03-12T02:21:25.585Z,-5.37
2024-03-12T02:24:03.966Z,-5.38
2024-03-12T02:26:35.626Z,-5.40
2024-03-12T02:29:14.537Z,-5.44
2024-03-12T02:31:47.839Z,-5.52
2024-03-12T02:34:21.028Z,-5.57
2024-03-12T02:36:48.996Z,-5.64
2024-03-12T02:39:19.994Z,-5.71
2024-03-12T02:41:50.158Z,-5.82
2024-03-12T02:44:18.741Z,-5.93
2024-03-12T02:46:51.216Z,-6.02
2024-03-12T02:49:25.226Z,-6.10
2024-03-12T02:52:05.737Z,-6.19
2024-03-12T02:54:38.676Z,-6.27
2024-03-12T02:57:14.731Z,-6.35
2024-03-12T02:59:42.746Z,-6.43
2024-03-12T03:02:14.031Z,-6.48
2024-03-12T03:04:48.366Z,-6.53
2024-03-12T03:07:22.395Z,-6.59
2024-03-12T03:09:55.606Z,-6.62
2024-03-12T03:12:24.840Z,-6.64
2024-03-12T03:14:55.273Z,-6.66
2024-03-12T03:17:23.269Z,-6.69
2024-03-12T03:19:51.238Z,-6.72
2024-03-12T03:22:21.065Z,-6.76
2024-03-12T03:24:48.982Z,-6.77
2024-03-12T03:27:18.626Z,-6.75
2024-03-12T03:29:47.211Z,-6.73
2024-03-12T03:32:15.692Z,-6.67
2024-03-12T03:34:46.760Z,-6.59
2024-03-12T03:37:15.460Z,-6.52
2024-03-12T03:39:54.982Z,-6.45
2024-03-12T03:42:28.680Z,-6.39
2024-03-12T03:45:07.381Z,-6.35
2024-03-12T03:47:36.393Z,-6.31
2024-03-12T03:50:08.321Z,-6.29
2024-03-12T03:52:36.308Z,-6.27
2024-03-12T03:55:05.354Z,-6.24
2024-03-12T03:57:34.024Z,-6.20
2024-03-12T04:00:05.874Z,-6.16
2024-03-12T04:02:35.519Z,-6.12
2024-03-12T04:05:03.448Z,-6.08
2024-03-12T04:07:46.453Z,-6.04
2024-03-12T04:10:16.921Z,-5.96
2024-03-12T04:12:48.642Z,-5.84
2024-03-12T04:15:30.840Z,-5.68
2024-03-12T04:17:59.530Z,-5.56
2024-03-12T04:20:32.106Z,-5.48
2024-03-12T04:23:05.194Z,-5.41
2024-03-12T04:25:40.446Z,-5.33
2024-03-12T04:28:21.048Z,-5.23
2024-03-12T04:30:54.121Z,-5.12
2024-03-12T04:33:27.439Z,-4.97
2024-03-12T04:36:04.000Z,-4.78
2024-03-12T04:38:34.380Z,-4.58
2024-03-12T04:41:16.580Z,-4.46
2024-03-12T04:43:54.998Z,-4.40
2024-03-12T04:46:32.082Z,-4.36
2024-03-12T04:49:03.305Z,-4.25
2024-03-12T04:51:41.714Z,-4.09
2024-03-12T04:54:15.445Z,-3.96
2024-03-12T04:56:43.883Z,-3.85
2024-03-12T04:59:17.013Z,-3.66
2024-03-12T05:02:01.419Z,-3.50
2024-03-12T05:04:34.422Z,-3.35
2024-03-12T05:07:08.000Z,-3.09
2024-03-12T05:09:46.708Z,-2.98
2024-03-12T05:12:19.577Z,-2.92
2024-03-12T05:14:52.449Z,-2.84
2024-03-12T05:17:20.323Z,-2.67
2024-03-12T05:19:48.546Z,-2.50
2024-03-12T05:22:17.849Z,-2.27
2024-03-12T05:24:45.782Z,-2.08
2024-03-12T05:27:34.694Z,-1.91
2024-03-12T05:30:12.530Z,-1.77
2024-03-12T05:32:45.084Z,-1.74
2024-03-12T05:35:19.951Z,-1.72
2024-03-12T05:38:10.854Z,-1.74
2024-03-12T05:40:48.226Z,-1.77
2024-03-12T05:43:46.638Z,-1.75
2024-03-12T05:46:37.029Z,-1.71
2024-03-12T05:49:11.458Z,-1.70
2024-03-12T05:51:47.286Z,-1.67
2024-03-12T05:54:15.763Z,-1.62
2024-03-12T05:56:48.964Z,-1.59
2024-03-12T05:59:22.948Z,-1.53
2024-03-12T06:01:52.869Z,-1.44
2024-03-12T06:04:20.830Z,-1.35
2024-03-12T06:06:49.268Z,-1.27
2024-03-12T06:09:24.035Z,-1.17
2024-03-12T06:12:23.667Z,-1.09
2024-03-12T06:14:52.050Z,-0.99
2024-03-12T06:17:20.734Z,-0.88
2024-03-12T06:19:52.090Z,-0.76
2024-03-12T06:22:20.195Z,-0.69
2024-03-12T06:24:49.614Z,-0.60
2024-03-12T06:27:20.510Z,-0.47
2024-03-12T06:29:52.939Z,-0.35
2024-03-12T06:32:39.469Z,-0.22
2024-03-12T06:35:09.284Z,-0.12
2024-03-12T06:37:37.158Z,-0.08
2024-03-12T06:40:10.671Z,-0.04
2024-03-12T06:42:43.706Z,0.05
2024-03-12T06:45:13.246Z,0.11
2024-03-12T06:47:43.201Z,0.18
2024-03-12T06:50:11.757Z,0.27
2024-03-12T06:52:41.024Z,0.38
2024-03-12T06:55:19.590Z,0.56
2024-03-12T06:57:53.467Z,0.85
2024-03-12T07:00:41.575Z,1.06
2024-03-12T07:03:18.701Z,1.29
2024-03-12T07:05:50.185Z,1.42
2024-03-12T07:08:19.420Z,1.43
2024-03-12T07:10:47.956Z,1.47
2024-03-12T07:13:16.482Z,1.49
2024-03-12T07:15:48.446Z,1.49
2024-03-12T07:18:16.521Z,1.50
2024-03-12T07:20:48.768Z,1.51
2024-03-12T07:23:19.205Z,1.52
2024-03-12T07:25:47.524Z,1.55
2024-03-12T07:28:15.380Z,1.63
2024-03-12T07:30:46.882Z,1.76
2024-03-12T07:33:16.954Z,1.88
2024-03-12T07:35:45.341Z,1.97
2024-03-12T07:38:16.486Z,2.06
2024-03-12T07:40:47.646Z,2.17
2024-03-12T07:43:28.495Z,2.35
2024-03-12T07:46:28.933Z,2.57
2024-03-12T07:49:05.690Z,2.70
2024-03-12T07:51:44.359Z,2.75
2024-03-12T07:54:38.273Z,2.88
2024-03-12T07:57:09.239Z,2.88
2024-03-12T07:59:38.032Z,2.82
2024-03-12T08:02:14.007Z,2.75
2024-03-12T08:04:44.724Z,2.73
2024-03-12T08:07:16.756Z,2.72
2024-03-12T08:09:48.672Z,2.71
2024-03-12T08:12:25.012Z,2.74
2024-03-12T08:15:00.381Z,2.77
2024-03-12T08:17:31.522Z,2.72
2024-03-12T08:20:00.056Z,2.67
2024-03-12T08:22:30.922Z,2.75
2024-03-12T08:24:59.949Z,2.87
2024-03-12T08:27:28.415Z,2.90
2024-03-12T08:30:11.353Z,2.90
2024-03-12T08:32:41.674Z,2.94
2024-03-12T08:35:13.025Z,2.94
2024-03-12T08:37:40.859Z,2.95
2024-03-12T08:40:10.564Z,2.94
2024-03-12T08:42:47.725Z,2.90
2024-03-12T08:45:24.761Z,2.88
2024-03-12T08:47:53.666Z,2.95
2024-03-12T08:50:21.597Z,3.05
2024-03-12T08:52:49.461Z,3.14
2024-03-12T08:55:20.645Z,3.25
2024-03-12T08:57:59.372Z,3.32
2024-03-12T09:00:35.416Z,3.41
2024-03-12T09:03:07.244Z,3.44
2024-03-12T09:05:37.579Z,3.40
2024-03-12T09:08:08.407Z,3.43
2024-03-12T09:10:42.651Z,3.50
2024-03-12T09:13:10.628Z,3.52
2024-03-12T09:15:39.018Z,3.50
2024-03-12T09:18:10.283Z,3.47
2024-03-12T09:20:38.494Z,3.44
2024-03-12T09:26:40.180Z,3.53
2024-03-12T09:29:14.713Z,3.57
2024-03-12T09:32:35.205Z,3.72
2024-03-12T09:35:05.253Z,3.97
2024-03-12T09:37:37.491Z,4.03
2024-03-12T09:40:07.371Z,4.03
2024-03-12T09:46:26.590Z,3.93
2024-03-12T09:48:56.345Z,3.90
2024-03-12T09:51:24.272Z,3.96
2024-03-12T09:53:52.758Z,4.07
2024-03-12T09:56:21.771Z,4.16
2024-03-12T09:58:50.231Z,4.14
2024-03-12T10:01:20.568Z,4.12
2024-03-12T10:03:48.537Z,4.18
2024-03-12T10:06:18.146Z,4.28
2024-03-12T10:08:46.302Z,4.32
2024-03-12T10:11:21.472Z,4.31
2024-03-12T10:14:00.526Z,4.32
2024-03-12T10:16:35.203Z,4.38
2024-03-12T10:19:13.553Z,4.50
2024-03-12T10:21:47.047Z,4.60
2024-03-12T10:24:16.110Z,4.71
2024-03-12T10:26:50.629Z,4.74
2024-03-12T10:29:25.062Z,4.70
2024-03-12T10:31:53.227Z,4.74
2024-03-12T10:34:50.275Z,4.79
2024-03-12T10:37:29.431Z,4.86
2024-03-12T10:40:18.805Z,4.96
2024-03-12T10:43:21.838Z,5.00
2024-03-12T10:46:15.784Z,5.01
2024-03-12T10:48:48.467Z,5.01
2024-03-12T10:54:18.733Z,4.91
2024-03-12T10:57:02.753Z,5.00
2024-03-12T10:59:34.278Z,5.05
2024-03-12T11:02:07.009Z,5.09
2024-03-12T11:14:43.104Z,5.22
2024-03-12T11:17:25.590Z,5.21
2024-03-12T11:22:54.309Z,5.21
2024-03-12T11:25:53.295Z,5.21
2024-03-12T11:31:49.772Z,5.19
2024-03-12T11:34:42.000Z,5.20
2024-03-12T11:40:52.882Z,5.15
2024-03-12T11:43:43.179Z,5.17
2024-03-12T11:46:14.081Z,5.20
2024-03-12T11:48:47.428Z,5.21
2024-03-12T11:54:52.397Z,5.24
2024-03-12T11:57:31.561Z,5.22
2024-03-12T12:00:28.655Z,5.20
2024-03-12T12:02:56.920Z,5.13
2024-03-12T12:05:30.832Z,5.12
2024-03-12T12:08:07.343Z,5.16
2024-03-12T12:10:35.300Z,5.18
2024-03-12T12:13:42.782Z,5.17
2024-03-12T12:16:53.937Z,5.18
2024-03-12T12:19:31.889Z,5.15
2024-03-12T12:22:04.782Z,5.11
2024-03-12T12:24:33.033Z,5.07
2024-03-12T12:27:01.313Z,5.05
2024-03-12T12:29:36.710Z,5.05
2024-03-12T12:32:06.606Z,5.04
2024-03-12T12:34:35.143Z,5.06
2024-03-12T12:37:03.747Z,5.05
2024-03-12T12:39:47.410Z,5.01
2024-03-12T12:42:23.023Z,5.00
2024-03-12T12:44:55.625Z,4.99
2024-03-12T12:47:49.603Z,4.95
2024-03-12T12:51:07.827Z,4.91
2024-03-12T12:54:31.023Z,4.88
2024-03-12T12:57:03.113Z,4.84
2024-03-12T12:59:40.501Z,4.84
2024-03-12T13:02:32.984Z,4.83
2024-03-12T13:05:08.105Z,4.82
2024-03-12T13:07:40.822Z,4.83
2024-03-12T13:10:41.875Z,4.82
2024-03-12T13:13:10.900Z,4.80
2024-03-12T13:15:38.868Z,4.78
2024-03-12T13:18:19.723Z,4.78
2024-03-12T13:20:53.095Z,4.79
2024-03-12T13:23:21.153Z,4.79
2024-03-12T13:25:52.819Z,4.78
2024-03-12T13:28:26.513Z,4.76
2024-03-12T13:30:59.716Z,4.76
2024-03-12T13:36:35.994Z,4.76
2024-03-12T13:39:09.922Z,4.75
2024-03-12T13:45:03.411Z,4.73
2024-03-12T13:47:34.355Z,4.71
2024-03-12T13:50:02.809Z,4.71
2024-03-12T13:52:32.557Z,4.70
2024-03-12T13:55:01.372Z,4.70
2024-03-12T13:57:32.156Z,4.69
2024-03-12T14:10:27.045Z,4.60
2024-03-12T14:12:58.791Z,4.58
2024-03-12T14:15:38.929Z,4.58
2024-03-12T14:18:08.481Z,4.56
2024-03-12T14:20:43.918Z,4.53
2024-03-12T14:23:12.046Z,4.52
2024-03-12T14:25:40.153Z,4.49
2024-03-12T14:31:00.965Z,4.45
2024-03-12T14:33:30.253Z,4.40
2024-03-12T14:35:58.517Z,4.39
2024-03-12T14:38:26.596Z,4.36
2024-03-12T14:40:57.401Z,4.33
2024-03-12T14:43:26.971Z,4.31
2024-03-12T14:45:56.591Z,4.27
2024-03-12T14:48:24.415Z,4.25
2024-03-12T14:50:52.789Z,4.23
2024-03-12T14:53:23.351Z,4.20
2024-03-12T14:55:53.537Z,4.17
2024-03-12T14:58:21.992Z,4.14
2024-03-12T15:00:50.622Z,4.11
2024-03-12T15:03:20.537Z,4.07
2024-03-12T15:05:49.877Z,4.05
2024-03-12T15:08:20.052Z,4.03
2024-03-12T15:10:48.201Z,3.99
2024-03-12T15:13:17.291Z,3.97
2024-03-12T15:15:45.935Z,3.93
2024-03-12T15:18:14.802Z,3.90
2024-03-12T15:20:44.296Z,3.87
2024-03-12T15:23:37.215Z,3.84
2024-03-12T15:26:06.723Z,3.80
2024-03-12T15:28:34.926Z,3.75
2024-03-12T15:31:05.331Z,3.70
2024-03-12T15:33:34.582Z,3.66
2024-03-12T15:36:02.634Z,3.63
2024-03-12T15:38:33.672Z,3.59
2024-03-12T15:41:01.548Z,3.55
2024-03-12T15:43:30.543Z,3.52
2024-03-12T15:45:59.524Z,3.48
2024-03-12T15:48:27.390Z,3.44
2024-03-12T15:50:56.500Z,3.41
2024-03-12T15:53:26.363Z,3.38
2024-03-12T15:55:56.847Z,3.37
2024-03-12T15:58:27.824Z,3.36
2024-03-12T16:00:58.445Z,3.36
2024-03-12T16:03:27.112Z,3.36
2024-03-12T16:06:20.992Z,3.35
2024-03-12T16:09:00.245Z,3.33
2024-03-12T16:11:28.541Z,3.33
2024-03-12T16:13:59.113Z,3.33
2024-03-12T16:16:26.970Z,3.31
2024-03-12T16:18:55.703Z,3.30
2024-03-12T16:21:25.027Z,3.30
2024-03-12T16:23:52.926Z,3.29
2024-03-12T16:26:20.803Z,3.27
2024-03-12T16:28:49.407Z,3.25
2024-03-12T16:31:17.691Z,3.25
2024-03-12T16:34:15.627Z,3.23
2024-03-12T16:36:45.870Z,3.20
2024-03-12T16:39:17.157Z,3.18
2024-03-12T16:42:20.498Z,3.16
2024-03-12T16:44:48.836Z,3.15
2024-03-12T16:48:39.685Z,3.13
2024-03-12T16:51:40.247Z,3.08
2024-03-12T16:54:12.627Z,3.06
2024-03-12T16:56:42.581Z,3.03
2024-03-12T16:59:38.063Z,3.01
2024-03-12T17:02:12.391Z,2.97
2024-03-12T17:04:43.638Z,2.95
2024-03-12T17:07:13.144Z,2.94
2024-03-12T17:09:43.349Z,2.93
2024-03-12T17:12:15.254Z,2.91
2024-03-12T17:14:46.518Z,2.90
2024-03-12T17:17:14.821Z,2.87
2024-03-12T17:19:44.364Z,2.85
2024-03-12T17:22:14.877Z,2.83
2024-03-12T17:24:47.866Z,2.81
2024-03-12T17:27:16.712Z,2.80
2024-03-12T17:29:44.931Z,2.78
2024-03-12T17:32:13.681Z,2.76
2024-03-12T17:35:35.687Z,2.73
2024-03-12T17:38:29.655Z,2.68
2024-03-12T17:40:59.871Z,2.66
2024-03-12T17:43:29.067Z,2.66
2024-03-12T17:45:57.904Z,2.66
2024-03-12T17:48:30.428Z,2.66
2024-03-12T17:51:00.623Z,2.67
2024-03-12T17:53:31.314Z,2.68
2024-03-12T17:57:42.047Z,2.67
2024-03-12T18:00:19.141Z,2.65
2024-03-12T18:03:12.650Z,2.64
2024-03-12T18:05:46.485Z,2.61
2024-03-12T18:08:20.791Z,2.59
2024-03-12T18:10:49.302Z,2.55
2024-03-12T18:13:22.797Z,2.52
2024-03-12T18:15:56.181Z,2.49
2024-03-12T18:18:26.080Z,2.45
2024-03-12T18:21:05.596Z,2.41
2024-03-12T18:23:34.105Z,2.37
2024-03-12T18:26:02.082Z,2.32
2024-03-12T18:28:30.329Z,2.27
2024-03-12T18:30:59.987Z,2.23
2024-03-12T18:33:28.342Z,2.19
2024-03-12T18:35:57.143Z,2.17
2024-03-12T18:38:26.246Z,2.14
2024-03-12T18:40:54.934Z,2.10
2024-03-12T18:43:23.801Z,2.08
2024-03-12T18:45:56.527Z,2.07
2024-03-12T18:48:32.906Z,2.04
2024-03-12T18:51:11.066Z,2.01
2024-03-12T18:53:55.011Z,2.00
2024-03-12T18:56:23.805Z,1.98
2024-03-12T18:58:55.761Z,1.96
2024-03-12T19:01:25.969Z,1.95
2024-03-12T19:04:00.988Z,1.93
2024-03-12T19:06:29.700Z,1.92
2024-03-12T19:08:58.445Z,1.91
2024-03-12T19:11:28.187Z,1.90
2024-03-12T19:13:57.087Z,1.90
2024-03-12T19:16:25.064Z,1.89
2024-03-12T19:18:56.948Z,1.89
2024-03-12T19:21:37.902Z,1.89
2024-03-12T19:24:06.784Z,1.89
2024-03-12T19:26:35.061Z,1.91
2024-03-12T19:29:03.542Z,1.92
2024-03-12T19:31:32.288Z,1.93
2024-03-12T19:34:00.793Z,1.95
2024-03-12T19:36:29.324Z,1.95
2024-03-12T19:39:03.220Z,1.94
2024-03-12T19:41:31.920Z,1.95
2024-03-12T19:44:03.527Z,1.94
2024-03-12T19:46:32.076Z,1.93
2024-03-12T19:49:01.305Z,1.92
2024-03-12T19:51:29.913Z,1.92
2024-03-12T19:54:06.719Z,1.91
2024-03-12T19:56:34.785Z,1.92
2024-03-12T19:59:02.529Z,1.93
2024-03-12T20:05:03.709Z,1.94
2024-03-12T20:07:31.920Z,1.93
2024-03-12T20:10:00.833Z,1.94
2024-03-12T20:12:29.382Z,1.94
2024-03-12T20:14:58.341Z,1.95
2024-03-12T20:17:26.633Z,1.95
2024-03-12T20:23:38.078Z,1.92
2024-03-12T20:26:07.693Z,1.90
2024-03-12T20:31:38.464Z,1.87
2024-03-12T20:34:06.304Z,1.88
2024-03-12T20:36:34.427Z,1.88
2024-03-12T20:39:02.711Z,1.87
2024-03-12T20:41:30.493Z,1.87
2024-03-12T20:43:58.870Z,1.87
2024-03-12T20:46:32.369Z,1.87
2024-03-12T20:49:00.952Z,1.86
2024-03-12T20:51:29.315Z,1.85
2024-03-12T20:54:03.223Z,1.84
2024-03-12T20:56:31.631Z,1.82
2024-03-12T20:58:59.464Z,1.82
2024-03-12T21:01:27.839Z,1.81
2024-03-12T21:03:56.066Z,1.81
2024-03-12T21:06:24.509Z,1.81
2024-03-12T21:08:52.577Z,1.80
2024-03-12T21:11:20.963Z,1.78
2024-03-12T21:13:49.335Z,1.78
2024-03-12T21:16:22.669Z,1.76
2024-03-12T21:18:50.732Z,1.74
2024-03-12T21:21:19.070Z,1.72
2024-03-12T21:23:47.664Z,1.71
2024-03-12T21:26:22.591Z,1.70
2024-03-12T21:28:54.170Z,1.69
2024-03-12T21:31:42.605Z,1.68
2024-03-12T21:34:10.774Z,1.68
2024-03-12T21:36:42.409Z,1.67
2024-03-12T21:39:10.908Z,1.68
2024-03-12T21:41:44.507Z,1.67
2024-03-12T21:44:12.399Z,1.66
2024-03-12T21:46:40.366Z,1.66
2024-03-12T21:49:10.573Z,1.64
2024-03-12T21:51:39.720Z,1.63
2024-03-12T21:54:07.941Z,1.63
2024-03-12T21:56:35.808Z,1.62
2024-03-12T21:59:16.271Z,1.61
2024-03-12T22:01:44.201Z,1.61
2024-03-12T22:04:12.162Z,1.59
2024-03-12T22:06:50.447Z,1.59
2024-03-12T22:09:19.207Z,1.59
2024-03-12T22:11:46.964Z,1.58
2024-03-12T22:14:16.123Z,1.58
2024-03-12T22:16:49.156Z,1.57
2024-03-12T22:19:17.152Z,1.58
2024-03-12T22:21:49.194Z,1.57
2024-03-12T22:24:25.249Z,1.56
2024-03-12T22:26:53.530Z,1.56
2024-03-12T22:29:26.617Z,1.54
2024-03-12T22:31:55.404Z,1.53
2024-03-12T22:34:23.211Z,1.53
2024-03-12T22:36:52.631Z,1.52
2024-03-12T22:39:28.228Z,1.52
2024-03-12T22:42:03.465Z,1.52
2024-03-12T22:44:32.138Z,1.53
2024-03-12T22:47:08.418Z,1.51
2024-03-12T22:49:37.313Z,1.51
2024-03-12T22:52:10.504Z,1.51
2024-03-12T22:54:45.423Z,1.51
2024-03-12T22:57:14.310Z,1.50
2024-03-12T22:59:43.125Z,1.50
2024-03-12T23:02:19.478Z,1.50
2024-03-12T23:04:48.726Z,1.48
2024-03-12T23:07:17.881Z,1.48
2024-03-12T23:09:46.320Z,1.46
2024-03-12T23:12:14.322Z,1.45
2024-03-12T23:14:45.468Z,1.44
2024-03-12T23:17:16.101Z,1.44
2024-03-12T23:19:47.409Z,1.44
2024-03-12T23:22:17.555Z,1.42
2024-03-12T23:24:46.714Z,1.42
2024-03-12T23:27:15.042Z,1.42
2024-03-12T23:29:45.887Z,1.41
2024-03-12T23:32:16.745Z,1.40
2024-03-12T23:34:49.915Z,1.40
2024-03-12T23:37:21.029Z,1.39
2024-03-12T23:39:52.447Z,1.37
2024-03-12T23:42:21.195Z,1.37
2024-03-12T23:44:49.263Z,1.35
2024-03-12T23:47:17.036Z,1.34
2024-03-12T23:49:45.101Z,1.33
2024-03-12T23:52:12.898Z,1.32
2024-03-12T23:54:46.250Z,1.31
2024-03-12T23:57:17.212Z,1.31
2024-03-12T23:59:50.710Z,1.30
